sensor_id;sensor_type;location;lat;lon;timestamp;temperature;humidity
47174;DHT22;36730;49.036;9.094;2022-09-14T00:01:39;28.80;66.90
47174;DHT22;36730;49.036;9.094;2022-09-14T00:04:06;28.80;66.90
47174;DHT22;36730;49.036;9.094;2022-09-14T00:06:32;28.90;67.10
47174;DHT22;36730;49.036;9.094;2022-09-14T00:08:58;28.90;67.10
47174;DHT22;36730;49.036;9.094;2022-09-14T00:11:26;28.90;67.00
47174;DHT22;36730;49.036;9.094;2022-09-14T00:13:51;28.90;67.00
47174;DHT22;36730;49.036;9.094;2022-09-14T00:16:18;28.90;67.00
47174;DHT22;36730;49.036;9.094;2022-09-14T00:18:44;28.90;67.20
47174;DHT22;36730;49.036;9.094;2022-09-14T00:21:10;28.90;67.20
47174;DHT22;36730;49.036;9.094;2022-09-14T00:23:36;28.80;67.20
47174;DHT22;36730;49.036;9.094;2022-09-14T00:26:06;28.90;67.30
47174;DHT22;36730;49.036;9.094;2022-09-14T00:28:39;28.90;67.20
47174;DHT22;36730;49.036;9.094;2022-09-14T00:31:05;28.90;67.30
47174;DHT22;36730;49.036;9.094;2022-09-14T00:33:31;28.90;67.20
47174;DHT22;36730;49.036;9.094;2022-09-14T00:36:08;28.90;67.30
47174;DHT22;36730;49.036;9.094;2022-09-14T00:38:33;28.90;67.40
47174;DHT22;36730;49.036;9.094;2022-09-14T00:41:00;28.90;67.40
47174;DHT22;36730;49.036;9.094;2022-09-14T00:43:25;28.90;67.40
47174;DHT22;36730;49.036;9.094;2022-09-14T00:45:51;28.90;67.50
47174;DHT22;36730;49.036;9.094;2022-09-14T00:48:17;28.90;67.50
47174;DHT22;36730;49.036;9.094;2022-09-14T00:50:43;28.90;67.80
47174;DHT22;36730;49.036;9.094;2022-09-14T00:53:08;28.80;67.70
47174;DHT22;36730;49.036;9.094;2022-09-14T00:55:34;28.80;67.60
47174;DHT22;36730;49.036;9.094;2022-09-14T00:57:59;28.80;67.70
47174;DHT22;36730;49.036;9.094;2022-09-14T01:00:26;28.90;67.70
47174;DHT22;36730;49.036;9.094;2022-09-14T01:02:52;28.90;67.70
47174;DHT22;36730;49.036;9.094;2022-09-14T01:05:17;28.90;67.80
47174;DHT22;36730;49.036;9.094;2022-09-14T01:08:30;28.90;67.80
47174;DHT22;36730;49.036;9.094;2022-09-14T01:15:57;28.80;67.90
47174;DHT22;36730;49.036;9.094;2022-09-14T01:18:28;28.80;67.90
47174;DHT22;36730;49.036;9.094;2022-09-14T01:20:59;28.90;67.90
47174;DHT22;36730;49.036;9.094;2022-09-14T01:23:36;28.90;68.00
47174;DHT22;36730;49.036;9.094;2022-09-14T01:26:08;28.90;68.00
47174;DHT22;36730;49.036;9.094;2022-09-14T01:28:42;28.90;68.00
47174;DHT22;36730;49.036;9.094;2022-09-14T01:31:15;28.90;68.10
47174;DHT22;36730;49.036;9.094;2022-09-14T01:33:58;28.90;68.10
47174;DHT22;36730;49.036;9.094;2022-09-14T01:36:25;28.90;68.10
47174;DHT22;36730;49.036;9.094;2022-09-14T01:38:52;28.90;68.70
47174;DHT22;36730;49.036;9.094;2022-09-14T01:41:19;28.90;68.10
47174;DHT22;36730;49.036;9.094;2022-09-14T01:43:56;28.90;68.10
47174;DHT22;36730;49.036;9.094;2022-09-14T01:46:24;28.90;68.20
47174;DHT22;36730;49.036;9.094;2022-09-14T01:51:28;28.90;68.30
47174;DHT22;36730;49.036;9.094;2022-09-14T01:54:04;28.80;68.20
47174;DHT22;36730;49.036;9.094;2022-09-14T01:56:38;28.90;68.30
47174;DHT22;36730;49.036;9.094;2022-09-14T01:59:07;28.90;68.30
47174;DHT22;36730;49.036;9.094;2022-09-14T02:01:45;28.90;68.30
47174;DHT22;36730;49.036;9.094;2022-09-14T02:04:12;28.90;68.40
47174;DHT22;36730;49.036;9.094;2022-09-14T02:06:41;28.90;68.30
47174;DHT22;36730;49.036;9.094;2022-09-14T02:09:09;28.90;68.40
47174;DHT22;36730;49.036;9.094;2022-09-14T02:11:35;28.90;68.50
47174;DHT22;36730;49.036;9.094;2022-09-14T02:14:01;28.90;68.80
47174;DHT22;36730;49.036;9.094;2022-09-14T02:16:26;28.90;68.70
47174;DHT22;36730;49.036;9.094;2022-09-14T02:18:52;28.90;68.70
47174;DHT22;36730;49.036;9.094;2022-09-14T02:21:20;28.90;68.70
47174;DHT22;36730;49.036;9.094;2022-09-14T02:23:46;28.90;68.70
47174;DHT22;36730;49.036;9.094;2022-09-14T02:26:12;28.90;68.80
47174;DHT22;36730;49.036;9.094;2022-09-14T02:28:37;28.90;68.80
47174;DHT22;36730;49.036;9.094;2022-09-14T02:36:22;28.90;68.90
47174;DHT22;36730;49.036;9.094;2022-09-14T02:41:49;28.90;69.00
47174;DHT22;36730;49.036;9.094;2022-09-14T02:44:20;28.80;69.00
47174;DHT22;36730;49.036;9.094;2022-09-14T02:49:19;28.90;69.10
47174;DHT22;36730;49.036;9.094;2022-09-14T02:51:57;28.90;69.20
47174;DHT22;36730;49.036;9.094;2022-09-14T02:54:32;28.90;69.20
47174;DHT22;36730;49.036;9.094;2022-09-14T02:57:00;28.90;69.30
47174;DHT22;36730;49.036;9.094;2022-09-14T02:59:25;28.90;69.20
47174;DHT22;36730;49.036;9.094;2022-09-14T03:01:51;28.90;69.80
47174;DHT22;36730;49.036;9.094;2022-09-14T03:04:16;28.90;69.30
47174;DHT22;36730;49.036;9.094;2022-09-14T03:06:42;28.90;69.30
47174;DHT22;36730;49.036;9.094;2022-09-14T03:09:07;28.90;69.20
47174;DHT22;36730;49.036;9.094;2022-09-14T03:11:33;28.90;69.40
47174;DHT22;36730;49.036;9.094;2022-09-14T03:13:58;28.90;69.40
47174;DHT22;36730;49.036;9.094;2022-09-14T03:16:24;28.90;69.40
47174;DHT22;36730;49.036;9.094;2022-09-14T03:18:49;28.90;69.50
47174;DHT22;36730;49.036;9.094;2022-09-14T03:21:15;28.90;69.60
47174;DHT22;36730;49.036;9.094;2022-09-14T03:23:43;28.90;69.70
47174;DHT22;36730;49.036;9.094;2022-09-14T03:26:10;28.90;69.80
47174;DHT22;36730;49.036;9.094;2022-09-14T03:28:36;28.90;70.10
47174;DHT22;36730;49.036;9.094;2022-09-14T03:31:02;28.90;70.20
47174;DHT22;36730;49.036;9.094;2022-09-14T03:33:28;28.90;70.30
47174;DHT22;36730;49.036;9.094;2022-09-14T03:35:53;28.90;70.40
47174;DHT22;36730;49.036;9.094;2022-09-14T03:38:19;28.90;70.40
47174;DHT22;36730;49.036;9.094;2022-09-14T03:40:45;28.90;70.60
47174;DHT22;36730;49.036;9.094;2022-09-14T03:43:12;28.90;70.60
47174;DHT22;36730;49.036;9.094;2022-09-14T03:45:38;28.90;71.20
47174;DHT22;36730;49.036;9.094;2022-09-14T03:48:04;28.90;71.20
47174;DHT22;36730;49.036;9.094;2022-09-14T03:50:30;28.90;71.00
47174;DHT22;36730;49.036;9.094;2022-09-14T03:52:56;28.90;71.10
47174;DHT22;36730;49.036;9.094;2022-09-14T03:55:21;28.90;71.20
47174;DHT22;36730;49.036;9.094;2022-09-14T03:57:47;28.80;71.40
47174;DHT22;36730;49.036;9.094;2022-09-14T04:00:12;28.80;71.60
47174;DHT22;36730;49.036;9.094;2022-09-14T04:02:38;28.80;71.40
47174;DHT22;36730;49.036;9.094;2022-09-14T04:05:04;28.80;71.70
47174;DHT22;36730;49.036;9.094;2022-09-14T04:07:30;28.70;71.70
47174;DHT22;36730;49.036;9.094;2022-09-14T04:09:55;28.70;71.70
47174;DHT22;36730;49.036;9.094;2022-09-14T04:12:21;28.70;71.90
47174;DHT22;36730;49.036;9.094;2022-09-14T04:14:46;28.70;71.90
47174;DHT22;36730;49.036;9.094;2022-09-14T04:17:12;28.70;72.10
47174;DHT22;36730;49.036;9.094;2022-09-14T04:19:37;28.70;72.00
47174;DHT22;36730;49.036;9.094;2022-09-14T04:22:06;28.70;72.20
47174;DHT22;36730;49.036;9.094;2022-09-14T04:24:32;28.70;72.90
47174;DHT22;36730;49.036;9.094;2022-09-14T04:26:57;28.70;72.50
47174;DHT22;36730;49.036;9.094;2022-09-14T04:29:23;28.70;72.30
47174;DHT22;36730;49.036;9.094;2022-09-14T04:31:48;28.60;73.30
47174;DHT22;36730;49.036;9.094;2022-09-14T04:34:13;28.60;74.00
47174;DHT22;36730;49.036;9.094;2022-09-14T04:36:39;28.60;73.50
47174;DHT22;36730;49.036;9.094;2022-09-14T04:39:04;28.60;75.40
47174;DHT22;36730;49.036;9.094;2022-09-14T04:41:31;28.50;74.40
47174;DHT22;36730;49.036;9.094;2022-09-14T04:43:57;28.50;74.60
47174;DHT22;36730;49.036;9.094;2022-09-14T04:46:27;28.50;75.10
47174;DHT22;36730;49.036;9.094;2022-09-14T04:48:53;28.50;75.00
47174;DHT22;36730;49.036;9.094;2022-09-14T04:51:22;28.50;75.00
47174;DHT22;36730;49.036;9.094;2022-09-14T04:53:49;28.50;74.40
47174;DHT22;36730;49.036;9.094;2022-09-14T04:56:15;28.50;74.50
47174;DHT22;36730;49.036;9.094;2022-09-14T04:58:41;28.50;74.60
47174;DHT22;36730;49.036;9.094;2022-09-14T05:01:08;28.50;74.40
47174;DHT22;36730;49.036;9.094;2022-09-14T05:03:34;28.50;74.70
47174;DHT22;36730;49.036;9.094;2022-09-14T05:06:01;28.60;74.60
47174;DHT22;36730;49.036;9.094;2022-09-14T05:08:27;28.60;74.60
47174;DHT22;36730;49.036;9.094;2022-09-14T05:10:55;28.60;75.50
47174;DHT22;36730;49.036;9.094;2022-09-14T05:13:21;28.60;75.00
47174;DHT22;36730;49.036;9.094;2022-09-14T05:15:48;28.60;75.10
47174;DHT22;36730;49.036;9.094;2022-09-14T05:18:13;28.60;74.70
47174;DHT22;36730;49.036;9.094;2022-09-14T05:20:38;28.50;75.90
47174;DHT22;36730;49.036;9.094;2022-09-14T05:23:04;28.50;75.80
47174;DHT22;36730;49.036;9.094;2022-09-14T05:25:29;28.40;75.70
47174;DHT22;36730;49.036;9.094;2022-09-14T05:27:55;28.40;77.20
47174;DHT22;36730;49.036;9.094;2022-09-14T05:30:20;28.40;76.90
47174;DHT22;36730;49.036;9.094;2022-09-14T05:32:46;28.40;77.00
47174;DHT22;36730;49.036;9.094;2022-09-14T05:35:11;28.30;77.50
47174;DHT22;36730;49.036;9.094;2022-09-14T05:37:37;28.30;77.90
47174;DHT22;36730;49.036;9.094;2022-09-14T05:40:02;28.20;77.20
47174;DHT22;36730;49.036;9.094;2022-09-14T05:42:29;28.20;76.90
47174;DHT22;36730;49.036;9.094;2022-09-14T05:44:55;28.20;76.60
47174;DHT22;36730;49.036;9.094;2022-09-14T05:47:20;28.20;76.30
47174;DHT22;36730;49.036;9.094;2022-09-14T05:49:45;28.20;75.90
47174;DHT22;36730;49.036;9.094;2022-09-14T05:52:11;28.10;76.20
47174;DHT22;36730;49.036;9.094;2022-09-14T05:54:36;27.90;78.60
47174;DHT22;36730;49.036;9.094;2022-09-14T05:57:02;27.80;79.20
47174;DHT22;36730;49.036;9.094;2022-09-14T05:59:28;27.70;78.80
47174;DHT22;36730;49.036;9.094;2022-09-14T06:01:58;27.70;79.20
47174;DHT22;36730;49.036;9.094;2022-09-14T06:04:24;27.60;79.70
47174;DHT22;36730;49.036;9.094;2022-09-14T06:06:49;27.60;79.20
47174;DHT22;36730;49.036;9.094;2022-09-14T06:09:15;27.60;80.60
47174;DHT22;36730;49.036;9.094;2022-09-14T06:11:41;27.50;80.30
47174;DHT22;36730;49.036;9.094;2022-09-14T06:14:06;27.50;81.50
47174;DHT22;36730;49.036;9.094;2022-09-14T06:16:32;27.40;81.00
47174;DHT22;36730;49.036;9.094;2022-09-14T06:18:58;27.30;81.30
47174;DHT22;36730;49.036;9.094;2022-09-14T06:21:26;27.30;82.60
47174;DHT22;36730;49.036;9.094;2022-09-14T06:23:52;27.30;82.80
47174;DHT22;36730;49.036;9.094;2022-09-14T06:26:17;27.20;83.30
47174;DHT22;36730;49.036;9.094;2022-09-14T06:28:43;27.10;84.00
47174;DHT22;36730;49.036;9.094;2022-09-14T06:31:10;27.10;83.10
47174;DHT22;36730;49.036;9.094;2022-09-14T06:33:35;27.00;85.10
47174;DHT22;36730;49.036;9.094;2022-09-14T06:36:02;27.00;86.10
47174;DHT22;36730;49.036;9.094;2022-09-14T06:38:28;26.90;85.30
47174;DHT22;36730;49.036;9.094;2022-09-14T06:40:54;26.80;85.20
47174;DHT22;36730;49.036;9.094;2022-09-14T06:43:21;26.80;86.10
47174;DHT22;36730;49.036;9.094;2022-09-14T06:45:54;26.80;84.10
47174;DHT22;36730;49.036;9.094;2022-09-14T06:48:20;26.80;85.50
47174;DHT22;36730;49.036;9.094;2022-09-14T06:50:45;26.90;83.10
47174;DHT22;36730;49.036;9.094;2022-09-14T06:53:11;26.90;84.80
47174;DHT22;36730;49.036;9.094;2022-09-14T06:55:36;27.00;83.60
47174;DHT22;36730;49.036;9.094;2022-09-14T06:58:02;27.00;85.30
47174;DHT22;36730;49.036;9.094;2022-09-14T07:00:27;27.00;87.30
47174;DHT22;36730;49.036;9.094;2022-09-14T07:02:53;27.10;83.30
47174;DHT22;36730;49.036;9.094;2022-09-14T07:05:18;27.20;84.90
47174;DHT22;36730;49.036;9.094;2022-09-14T07:07:49;27.20;82.80
47174;DHT22;36730;49.036;9.094;2022-09-14T07:10:15;27.30;82.30
47174;DHT22;36730;49.036;9.094;2022-09-14T07:12:40;27.30;81.80
47174;DHT22;36730;49.036;9.094;2022-09-14T07:15:06;27.40;81.50
47174;DHT22;36730;49.036;9.094;2022-09-14T07:17:32;27.40;81.30
47174;DHT22;36730;49.036;9.094;2022-09-14T07:19:57;27.50;81.60
47174;DHT22;36730;49.036;9.094;2022-09-14T07:22:23;27.50;82.40
47174;DHT22;36730;49.036;9.094;2022-09-14T07:24:48;27.60;81.60
47174;DHT22;36730;49.036;9.094;2022-09-14T07:27:14;27.60;80.20
47174;DHT22;36730;49.036;9.094;2022-09-14T07:29:40;27.60;80.00
47174;DHT22;36730;49.036;9.094;2022-09-14T07:32:05;27.70;80.60
47174;DHT22;36730;49.036;9.094;2022-09-14T07:34:31;27.70;80.70
47174;DHT22;36730;49.036;9.094;2022-09-14T07:36:56;27.80;81.60
47174;DHT22;36730;49.036;9.094;2022-09-14T07:39:22;27.80;81.80
47174;DHT22;36730;49.036;9.094;2022-09-14T07:41:47;27.80;81.30
47174;DHT22;36730;49.036;9.094;2022-09-14T07:44:14;27.80;80.30
47174;DHT22;36730;49.036;9.094;2022-09-14T07:46:40;27.90;81.20
47174;DHT22;36730;49.036;9.094;2022-09-14T07:49:06;27.90;84.00
47174;DHT22;36730;49.036;9.094;2022-09-14T07:51:32;27.90;81.00
47174;DHT22;36730;49.036;9.094;2022-09-14T07:53:58;28.00;81.70
47174;DHT22;36730;49.036;9.094;2022-09-14T07:56:26;28.00;80.70
47174;DHT22;36730;49.036;9.094;2022-09-14T07:58:52;28.10;81.00
47174;DHT22;36730;49.036;9.094;2022-09-14T08:01:18;28.10;81.60
47174;DHT22;36730;49.036;9.094;2022-09-14T08:03:44;28.10;81.00
47174;DHT22;36730;49.036;9.094;2022-09-14T08:06:10;28.10;81.10
47174;DHT22;36730;49.036;9.094;2022-09-14T08:08:38;28.10;81.00
47174;DHT22;36730;49.036;9.094;2022-09-14T08:13:30;28.20;81.10
47174;DHT22;36730;49.036;9.094;2022-09-14T08:15:56;28.20;80.20
47174;DHT22;36730;49.036;9.094;2022-09-14T08:18:25;28.20;81.20
47174;DHT22;36730;49.036;9.094;2022-09-14T08:20:50;28.20;81.50
47174;DHT22;36730;49.036;9.094;2022-09-14T08:23:16;28.30;82.70
47174;DHT22;36730;49.036;9.094;2022-09-14T08:25:41;28.30;80.20
47174;DHT22;36730;49.036;9.094;2022-09-14T08:28:07;28.30;80.40
47174;DHT22;36730;49.036;9.094;2022-09-14T08:30:32;28.30;80.20
47174;DHT22;36730;49.036;9.094;2022-09-14T08:32:58;28.40;80.90
47174;DHT22;36730;49.036;9.094;2022-09-14T08:35:23;28.40;80.00
47174;DHT22;36730;49.036;9.094;2022-09-14T08:37:49;28.40;79.60
47174;DHT22;36730;49.036;9.094;2022-09-14T08:40:14;28.30;82.60
47174;DHT22;36730;49.036;9.094;2022-09-14T08:42:41;28.30;80.10
47174;DHT22;36730;49.036;9.094;2022-09-14T08:45:07;28.30;83.90
47174;DHT22;36730;49.036;9.094;2022-09-14T08:47:36;28.20;85.00
47174;DHT22;36730;49.036;9.094;2022-09-14T08:52:41;28.10;85.90
47174;DHT22;36730;49.036;9.094;2022-09-14T09:01:11;27.80;89.50
47174;DHT22;36730;49.036;9.094;2022-09-14T09:03:22;27.80;87.10
47174;DHT22;36730;49.036;9.094;2022-09-14T09:08:32;27.70;89.80
47174;DHT22;36730;49.036;9.094;2022-09-14T09:11:01;27.70;89.60
47174;DHT22;36730;49.036;9.094;2022-09-14T09:13:30;27.80;90.90
47174;DHT22;36730;49.036;9.094;2022-09-14T09:15:58;27.80;90.10
47174;DHT22;36730;49.036;9.094;2022-09-14T09:20:58;27.90;90.90
47174;DHT22;36730;49.036;9.094;2022-09-14T09:23:26;28.00;91.50
47174;DHT22;36730;49.036;9.094;2022-09-14T09:25:55;27.90;91.90
47174;DHT22;36730;49.036;9.094;2022-09-14T09:28:22;28.00;92.00
47174;DHT22;36730;49.036;9.094;2022-09-14T09:30:49;28.00;92.80
47174;DHT22;36730;49.036;9.094;2022-09-14T09:33:16;28.10;92.80
47174;DHT22;36730;49.036;9.094;2022-09-14T09:35:44;28.10;93.00
47174;DHT22;36730;49.036;9.094;2022-09-14T09:38:13;28.10;92.40
47174;DHT22;36730;49.036;9.094;2022-09-14T09:40:40;28.10;92.40
47174;DHT22;36730;49.036;9.094;2022-09-14T09:43:10;28.20;92.40
47174;DHT22;36730;49.036;9.094;2022-09-14T09:48:53;28.30;93.20
47174;DHT22;36730;49.036;9.094;2022-09-14T09:51:15;28.20;92.80
47174;DHT22;36730;49.036;9.094;2022-09-14T09:53:45;28.20;93.00
47174;DHT22;36730;49.036;9.094;2022-09-14T09:59:19;28.10;93.30
47174;DHT22;36730;49.036;9.094;2022-09-14T10:01:45;28.10;93.50
47174;DHT22;36730;49.036;9.094;2022-09-14T10:04:17;28.20;93.20
47174;DHT22;36730;49.036;9.094;2022-09-14T10:06:44;28.30;93.10
47174;DHT22;36730;49.036;9.094;2022-09-14T10:09:14;28.40;93.80
47174;DHT22;36730;49.036;9.094;2022-09-14T10:11:40;28.50;92.80
47174;DHT22;36730;49.036;9.094;2022-09-14T10:14:18;28.50;92.20
47174;DHT22;36730;49.036;9.094;2022-09-14T10:16:44;28.50;92.10
47174;DHT22;36730;49.036;9.094;2022-09-14T10:19:14;28.40;91.50
47174;DHT22;36730;49.036;9.094;2022-09-14T10:21:59;28.40;91.30
47174;DHT22;36730;49.036;9.094;2022-09-14T10:24:25;28.50;91.30
47174;DHT22;36730;49.036;9.094;2022-09-14T10:26:51;28.60;91.10
47174;DHT22;36730;49.036;9.094;2022-09-14T10:31:48;28.80;90.80
47174;DHT22;36730;49.036;9.094;2022-09-14T10:34:17;28.80;91.00
47174;DHT22;36730;49.036;9.094;2022-09-14T10:36:45;28.90;90.30
47174;DHT22;36730;49.036;9.094;2022-09-14T10:44:25;29.00;87.60
47174;DHT22;36730;49.036;9.094;2022-09-14T10:49:30;29.00;88.40
47174;DHT22;36730;49.036;9.094;2022-09-14T10:57:19;29.10;87.30
47174;DHT22;36730;49.036;9.094;2022-09-14T10:59:50;29.10;86.70
47174;DHT22;36730;49.036;9.094;2022-09-14T11:02:24;29.10;85.70
47174;DHT22;36730;49.036;9.094;2022-09-14T11:05:02;29.20;86.10
47174;DHT22;36730;49.036;9.094;2022-09-14T11:07:39;29.20;86.70
47174;DHT22;36730;49.036;9.094;2022-09-14T11:10:18;29.30;86.10
47174;DHT22;36730;49.036;9.094;2022-09-14T11:17:43;29.30;85.60
47174;DHT22;36730;49.036;9.094;2022-09-14T11:25:30;29.40;85.00
47174;DHT22;36730;49.036;9.094;2022-09-14T11:27:59;29.40;83.80
47174;DHT22;36730;49.036;9.094;2022-09-14T11:30:36;29.40;82.60
47174;DHT22;36730;49.036;9.094;2022-09-14T11:33:09;29.50;82.20
47174;DHT22;36730;49.036;9.094;2022-09-14T11:35:37;29.50;82.70
47174;DHT22;36730;49.036;9.094;2022-09-14T11:38:07;29.50;81.30
47174;DHT22;36730;49.036;9.094;2022-09-14T11:40:36;29.50;81.40
47174;DHT22;36730;49.036;9.094;2022-09-14T11:43:12;29.50;80.60
47174;DHT22;36730;49.036;9.094;2022-09-14T11:45:44;29.60;81.10
47174;DHT22;36730;49.036;9.094;2022-09-14T11:50:38;29.60;79.30
47174;DHT22;36730;49.036;9.094;2022-09-14T11:53:11;29.70;78.60
47174;DHT22;36730;49.036;9.094;2022-09-14T11:55:37;29.70;79.40
47174;DHT22;36730;49.036;9.094;2022-09-14T11:58:06;29.70;78.60
47174;DHT22;36730;49.036;9.094;2022-09-14T12:05:41;29.80;77.70
47174;DHT22;36730;49.036;9.094;2022-09-14T12:11:29;29.80;77.70
47174;DHT22;36730;49.036;9.094;2022-09-14T12:13:45;29.80;77.50
47174;DHT22;36730;49.036;9.094;2022-09-14T12:16:11;29.80;78.00
47174;DHT22;36730;49.036;9.094;2022-09-14T12:18:37;29.80;77.30
47174;DHT22;36730;49.036;9.094;2022-09-14T12:26:09;29.70;77.00
47174;DHT22;36730;49.036;9.094;2022-09-14T12:28:41;29.70;77.10
47174;DHT22;36730;49.036;9.094;2022-09-14T12:34:12;29.60;78.30
47174;DHT22;36730;49.036;9.094;2022-09-14T12:39:08;29.60;78.50
47174;DHT22;36730;49.036;9.094;2022-09-14T12:46:55;29.50;79.80
47174;DHT22;36730;49.036;9.094;2022-09-14T12:49:27;29.50;79.90
47174;DHT22;36730;49.036;9.094;2022-09-14T12:51:53;29.60;79.20
47174;DHT22;36730;49.036;9.094;2022-09-14T12:59:47;29.50;79.00
47174;DHT22;36730;49.036;9.094;2022-09-14T13:04:44;29.40;79.30
47174;DHT22;36730;49.036;9.094;2022-09-14T13:07:13;29.30;80.10
47174;DHT22;36730;49.036;9.094;2022-09-14T13:09:39;29.30;79.50
47174;DHT22;36730;49.036;9.094;2022-09-14T13:12:09;29.20;80.60
47174;DHT22;36730;49.036;9.094;2022-09-14T13:14:38;29.20;82.50
47174;DHT22;36730;49.036;9.094;2022-09-14T13:17:11;29.20;83.70
47174;DHT22;36730;49.036;9.094;2022-09-14T13:19:40;29.20;84.20
47174;DHT22;36730;49.036;9.094;2022-09-14T13:22:19;29.10;83.80
47174;DHT22;36730;49.036;9.094;2022-09-14T13:24:45;29.00;86.20
47174;DHT22;36730;49.036;9.094;2022-09-14T13:27:24;29.00;89.40
47174;DHT22;36730;49.036;9.094;2022-09-14T13:32:28;29.00;89.60
47174;DHT22;36730;49.036;9.094;2022-09-14T13:34:54;29.00;90.00
47174;DHT22;36730;49.036;9.094;2022-09-14T13:37:20;29.00;86.80
47174;DHT22;36730;49.036;9.094;2022-09-14T13:39:47;29.10;86.30
47174;DHT22;36730;49.036;9.094;2022-09-14T13:42:15;29.10;86.40
47174;DHT22;36730;49.036;9.094;2022-09-14T13:44:41;29.10;87.40
47174;DHT22;36730;49.036;9.094;2022-09-14T13:47:10;29.10;88.40
47174;DHT22;36730;49.036;9.094;2022-09-14T13:49:38;29.10;87.30
47174;DHT22;36730;49.036;9.094;2022-09-14T13:52:18;29.10;87.00
47174;DHT22;36730;49.036;9.094;2022-09-14T13:54:43;29.20;86.30
47174;DHT22;36730;49.036;9.094;2022-09-14T13:57:14;29.20;87.90
47174;DHT22;36730;49.036;9.094;2022-09-14T14:02:23;29.30;86.60
47174;DHT22;36730;49.036;9.094;2022-09-14T14:04:50;29.30;86.20
47174;DHT22;36730;49.036;9.094;2022-09-14T14:07:23;29.30;85.40
47174;DHT22;36730;49.036;9.094;2022-09-14T14:09:53;29.40;85.40
47174;DHT22;36730;49.036;9.094;2022-09-14T14:12:20;29.40;87.00
47174;DHT22;36730;49.036;9.094;2022-09-14T14:14:53;29.40;87.30
47174;DHT22;36730;49.036;9.094;2022-09-14T14:17:22;29.40;86.30
47174;DHT22;36730;49.036;9.094;2022-09-14T14:19:49;29.40;86.60
47174;DHT22;36730;49.036;9.094;2022-09-14T14:22:20;29.50;87.30
47174;DHT22;36730;49.036;9.094;2022-09-14T14:24:48;29.50;86.70
47174;DHT22;36730;49.036;9.094;2022-09-14T14:27:27;29.50;86.50
47174;DHT22;36730;49.036;9.094;2022-09-14T14:29:53;29.50;87.00
47174;DHT22;36730;49.036;9.094;2022-09-14T14:32:19;29.50;84.50
47174;DHT22;36730;49.036;9.094;2022-09-14T14:34:44;29.50;83.90
47174;DHT22;36730;49.036;9.094;2022-09-14T14:37:10;29.50;84.80
47174;DHT22;36730;49.036;9.094;2022-09-14T14:39:35;29.50;83.70
47174;DHT22;36730;49.036;9.094;2022-09-14T14:42:01;29.50;85.90
47174;DHT22;36730;49.036;9.094;2022-09-14T14:44:27;29.50;82.70
47174;DHT22;36730;49.036;9.094;2022-09-14T14:46:53;29.40;83.60
47174;DHT22;36730;49.036;9.094;2022-09-14T14:49:19;29.40;82.50
47174;DHT22;36730;49.036;9.094;2022-09-14T14:51:45;29.50;83.70
47174;DHT22;36730;49.036;9.094;2022-09-14T14:54:11;29.40;83.90
47174;DHT22;36730;49.036;9.094;2022-09-14T14:56:37;29.40;82.80
47174;DHT22;36730;49.036;9.094;2022-09-14T14:59:05;29.30;81.20
47174;DHT22;36730;49.036;9.094;2022-09-14T15:01:39;29.30;82.30
47174;DHT22;36730;49.036;9.094;2022-09-14T15:04:04;29.30;82.00
47174;DHT22;36730;49.036;9.094;2022-09-14T15:06:30;29.30;82.50
47174;DHT22;36730;49.036;9.094;2022-09-14T15:08:55;29.30;83.30
47174;DHT22;36730;49.036;9.094;2022-09-14T15:11:21;29.30;82.40
47174;DHT22;36730;49.036;9.094;2022-09-14T15:13:46;29.30;81.80
47174;DHT22;36730;49.036;9.094;2022-09-14T15:16:13;29.20;82.20
47174;DHT22;36730;49.036;9.094;2022-09-14T15:18:38;29.20;80.70
47174;DHT22;36730;49.036;9.094;2022-09-14T15:21:04;29.10;83.80
47174;DHT22;36730;49.036;9.094;2022-09-14T15:23:29;29.10;82.00
47174;DHT22;36730;49.036;9.094;2022-09-14T15:25:55;28.90;82.40
47174;DHT22;36730;49.036;9.094;2022-09-14T15:28:21;28.90;82.80
47174;DHT22;36730;49.036;9.094;2022-09-14T15:30:46;28.90;82.40
47174;DHT22;36730;49.036;9.094;2022-09-14T15:33:12;28.80;83.00
47174;DHT22;36730;49.036;9.094;2022-09-14T15:35:37;28.80;83.00
47174;DHT22;36730;49.036;9.094;2022-09-14T15:38:03;28.80;85.20
47174;DHT22;36730;49.036;9.094;2022-09-14T15:40:29;28.80;85.10
47174;DHT22;36730;49.036;9.094;2022-09-14T15:42:54;28.80;83.00
47174;DHT22;36730;49.036;9.094;2022-09-14T15:45:20;28.80;84.40
47174;DHT22;36730;49.036;9.094;2022-09-14T15:47:45;28.70;84.20
47174;DHT22;36730;49.036;9.094;2022-09-14T15:50:11;28.70;84.20
47174;DHT22;36730;49.036;9.094;2022-09-14T15:52:37;28.70;84.40
47174;DHT22;36730;49.036;9.094;2022-09-14T15:55:04;28.80;84.60
47174;DHT22;36730;49.036;9.094;2022-09-14T15:57:30;28.80;83.40
47174;DHT22;36730;49.036;9.094;2022-09-14T15:59:55;28.90;83.30
47174;DHT22;36730;49.036;9.094;2022-09-14T16:02:21;28.90;83.70
47174;DHT22;36730;49.036;9.094;2022-09-14T16:04:46;28.90;83.60
47174;DHT22;36730;49.036;9.094;2022-09-14T16:07:12;28.90;83.70
47174;DHT22;36730;49.036;9.094;2022-09-14T16:09:37;29.00;82.70
47174;DHT22;36730;49.036;9.094;2022-09-14T16:12:04;29.00;83.80
47174;DHT22;36730;49.036;9.094;2022-09-14T16:14:29;29.10;81.80
47174;DHT22;36730;49.036;9.094;2022-09-14T16:16:55;29.10;81.80
47174;DHT22;36730;49.036;9.094;2022-09-14T16:19:20;29.20;81.90
47174;DHT22;36730;49.036;9.094;2022-09-14T16:21:46;29.30;82.00
47174;DHT22;36730;49.036;9.094;2022-09-14T16:24:12;29.30;81.60
47174;DHT22;36730;49.036;9.094;2022-09-14T16:26:39;29.30;80.60
47174;DHT22;36730;49.036;9.094;2022-09-14T16:29:05;29.40;81.70
47174;DHT22;36730;49.036;9.094;2022-09-14T16:31:36;29.40;81.10
47174;DHT22;36730;49.036;9.094;2022-09-14T16:34:03;29.40;80.70
47174;DHT22;36730;49.036;9.094;2022-09-14T16:36:30;29.50;80.30
47174;DHT22;36730;49.036;9.094;2022-09-14T16:38:56;29.50;80.30
47174;DHT22;36730;49.036;9.094;2022-09-14T16:41:22;29.50;80.50
47174;DHT22;36730;49.036;9.094;2022-09-14T16:44:22;29.50;80.40
47174;DHT22;36730;49.036;9.094;2022-09-14T16:46:40;29.50;81.00
47174;DHT22;36730;49.036;9.094;2022-09-14T16:49:06;29.50;82.10
47174;DHT22;36730;49.036;9.094;2022-09-14T16:51:31;29.50;83.00
47174;DHT22;36730;49.036;9.094;2022-09-14T16:53:57;29.50;83.30
47174;DHT22;36730;49.036;9.094;2022-09-14T16:56:27;29.50;81.30
47174;DHT22;36730;49.036;9.094;2022-09-14T16:58:54;29.50;81.70
47174;DHT22;36730;49.036;9.094;2022-09-14T17:01:21;29.40;81.00
47174;DHT22;36730;49.036;9.094;2022-09-14T17:03:48;29.50;81.00
47174;DHT22;36730;49.036;9.094;2022-09-14T17:06:15;29.50;82.20
47174;DHT22;36730;49.036;9.094;2022-09-14T17:08:41;29.50;81.40
47174;DHT22;36730;49.036;9.094;2022-09-14T17:11:07;29.50;81.10
47174;DHT22;36730;49.036;9.094;2022-09-14T17:13:33;29.50;82.80
47174;DHT22;36730;49.036;9.094;2022-09-14T17:15:59;29.50;80.60
47174;DHT22;36730;49.036;9.094;2022-09-14T17:18:25;29.50;80.40